Time;durP1;ratioP1;P1;durP2;ratioP2;P2;SDS_P1;SDS_P2;PMS_P1;PMS_P2;Temp;Humidity;BMP_temperature;BMP_pressure;BME280_temperature;BME280_humidity;BME280_pressure;Samples;Min_cycle;Max_cycle;Signal;HPM_P1;HPM_P2
2021/12/30 00:00:47;;;;;;;16.10;2.40;;;12.00;99.90;;;;;;4982082;28;20028;-81
2021/12/30 00:03:12;;;;;;;16.37;2.83;;;12.00;99.90;;;;;;4981454;28;20038;-81
2021/12/30 00:05:39;;;;;;;7.30;2.43;;;11.90;99.90;;;;;;4982309;28;20031;-80
2021/12/30 00:08:08;;;;;;;16.33;2.80;;;11.90;99.90;;;;;;4997097;28;20034;-80
2021/12/30 00:10:34;;;;;;;17.53;3.60;;;11.80;99.90;;;;;;4982009;28;20039;-81
2021/12/30 00:13:00;;;;;;;18.60;4.67;;;11.80;99.90;;;;;;4981051;28;20034;-81
2021/12/30 00:15:26;;;;;;;13.03;2.80;;;11.80;99.90;;;;;;4979598;28;20161;-81
2021/12/30 00:17:52;;;;;;;13.63;2.40;;;11.80;99.90;;;;;;4980965;28;20027;-81
2021/12/30 00:20:18;;;;;;;10.63;2.30;;;11.80;99.90;;;;;;4979250;28;20037;-81
2021/12/30 00:22:44;;;;;;;8.13;2.43;;;11.70;99.90;;;;;;4980515;28;20034;-81
2021/12/30 00:25:11;;;;;;;15.57;2.60;;;11.70;99.90;;;;;;4980883;28;20234;-80
2021/12/30 00:27:40;;;;;;;16.53;3.20;;;11.70;99.90;;;;;;4988878;28;20344;-80
2021/12/30 00:30:09;;;;;;;11.03;2.47;;;11.60;99.90;;;;;;4978256;28;20034;-81
2021/12/30 00:32:34;;;;;;;14.17;4.97;;;11.60;99.90;;;;;;4992612;28;20015;-81
2021/12/30 00:35:01;;;;;;;18.13;3.33;;;11.60;99.90;;;;;;4979531;28;20062;-80
2021/12/30 00:37:26;;;;;;;14.10;3.97;;;11.60;99.90;;;;;;4998874;28;20030;-80
2021/12/30 00:39:52;;;;;;;12.73;3.27;;;11.50;99.90;;;;;;4978812;28;20030;-80
2021/12/30 00:42:18;;;;;;;14.13;2.30;;;11.50;99.90;;;;;;4992468;28;20033;-81
2021/12/30 00:44:44;;;;;;;9.90;1.93;;;11.60;99.90;;;;;;4998495;28;20067;-80
2021/12/30 00:47:15;;;;;;;20.17;3.13;;;11.60;99.90;;;;;;4982867;28;20077;-80
2021/12/30 00:49:43;;;;;;;7.73;2.30;;;11.60;99.90;;;;;;4999983;28;20066;-81
2021/12/30 00:52:09;;;;;;;24.13;4.07;;;11.60;99.90;;;;;;4998838;28;20028;-81
2021/12/30 00:54:35;;;;;;;20.80;5.50;;;11.60;99.90;;;;;;4983467;28;20034;-81
2021/12/30 00:57:01;;;;;;;23.00;3.50;;;11.60;99.90;;;;;;4983785;28;20281;-80
2021/12/30 00:59:29;;;;;;;9.43;2.10;;;11.70;99.90;;;;;;4983800;28;20035;-80
2021/12/30 01:01:55;;;;;;;16.83;3.30;;;11.70;99.90;;;;;;4981023;28;20024;-80
2021/12/30 01:04:21;;;;;;;11.37;2.10;;;11.70;99.90;;;;;;4979898;28;20042;-81
2021/12/30 01:06:47;;;;;;;13.60;3.37;;;11.60;99.90;;;;;;4978629;28;20056;-81
2021/12/30 01:09:13;;;;;;;17.37;4.00;;;11.60;99.90;;;;;;4980957;28;20019;-80
2021/12/30 01:11:39;;;;;;;19.27;3.87;;;11.70;99.90;;;;;;4978173;28;20047;-80
2021/12/30 01:14:15;;;;;;;13.53;3.07;;;11.70;99.90;;;;;;4992401;28;20061;-80
2021/12/30 01:16:47;;;;;;;19.70;3.03;;;11.60;99.90;;;;;;4996120;28;20038;-80
2021/12/30 01:21:43;;;;;;;20.03;2.10;;;11.60;99.90;;;;;;4994011;28;20031;-80
2021/12/30 01:24:09;;;;;;;8.73;2.23;;;11.60;99.90;;;;;;4979758;28;20037;-80
2021/12/30 01:26:35;;;;;;;15.57;2.77;;;11.60;99.90;;;;;;4986655;28;20023;-81
2021/12/30 01:29:01;;;;;;;15.70;2.93;;;11.60;99.90;;;;;;4977096;28;20030;-81
2021/12/30 01:31:29;;;;;;;18.07;3.27;;;11.60;99.90;;;;;;4977191;28;20219;-80
2021/12/30 01:33:55;;;;;;;15.07;3.50;;;11.60;99.90;;;;;;4976282;28;20027;-80
2021/12/30 01:36:21;;;;;;;10.83;2.60;;;11.60;99.90;;;;;;4976956;28;20034;-81
2021/12/30 01:38:48;;;;;;;20.33;2.50;;;11.60;99.90;;;;;;4990391;28;20023;-80
2021/12/30 01:41:14;;;;;;;14.47;2.50;;;11.60;99.90;;;;;;4976874;28;20026;-81
2021/12/30 01:43:40;;;;;;;10.07;2.40;;;11.60;99.90;;;;;;4994515;28;20033;-79
2021/12/30 01:46:08;;;;;;;10.43;2.03;;;11.60;99.90;;;;;;4993076;28;20053;-81
2021/12/30 01:48:34;;;;;;;7.30;1.50;;;11.60;99.90;;;;;;4986452;28;20035;-81
2021/12/30 01:51:01;;;;;;;8.13;1.97;;;11.70;99.90;;;;;;4987310;28;20027;-80
2021/12/30 01:53:27;;;;;;;12.17;2.07;;;11.70;99.90;;;;;;4974659;28;20018;-78
2021/12/30 01:55:53;;;;;;;7.70;1.70;;;11.70;99.90;;;;;;4976662;28;20031;-81
2021/12/30 01:58:20;;;;;;;8.73;1.83;;;11.70;99.90;;;;;;4976289;28;20023;-81
2021/12/30 02:00:50;;;;;;;11.20;2.30;;;11.70;99.90;;;;;;4976842;28;20134;-80
2021/12/30 02:03:16;;;;;;;12.87;1.73;;;11.80;99.90;;;;;;4977515;28;20011;-80
2021/12/30 02:05:42;;;;;;;8.53;2.40;;;11.80;99.90;;;;;;4976547;28;20425;-80
2021/12/30 02:08:14;;;;;;;11.13;2.00;;;11.80;99.90;;;;;;4992643;28;20034;-80
2021/12/30 02:10:42;;;;;;;6.85;2.42;;;11.80;99.90;;;;;;4977783;28;20585;-81
2021/12/30 02:13:09;;;;;;;10.63;1.97;;;11.70;99.90;;;;;;4988481;28;20025;-81
2021/12/30 02:15:35;;;;;;;8.90;1.70;;;11.80;99.90;;;;;;4975676;28;20094;-81
2021/12/30 02:18:02;;;;;;;7.33;1.73;;;11.80;99.90;;;;;;4993718;28;20027;-80
2021/12/30 02:20:49;;;;;;;10.10;1.97;;;11.80;99.90;;;;;;4976502;28;20046;-80
2021/12/30 02:23:21;;;;;;;12.03;2.03;;;11.80;99.90;;;;;;4993695;28;20285;-80
2021/12/30 02:25:49;;;;;;;7.20;2.03;;;11.70;99.90;;;;;;4993015;28;20032;-81
2021/12/30 02:28:16;;;;;;;8.93;1.60;;;11.80;99.90;;;;;;4977296;28;20035;-80
2021/12/30 02:30:46;;;;;;;9.17;2.07;;;11.80;99.90;;;;;;4992348;28;21447;-82
2021/12/30 02:33:12;;;;;;;10.60;2.13;;;11.90;99.90;;;;;;4989072;28;20023;-80
2021/12/30 02:35:41;;;;;;;7.47;1.70;;;11.90;99.90;;;;;;4977561;28;20019;-80
2021/12/30 02:38:07;;;;;;;14.17;2.70;;;12.00;99.90;;;;;;4993637;28;20071;-80
2021/12/30 02:40:40;;;;;;;8.50;1.93;;;12.00;99.90;;;;;;4975920;28;20023;-80
2021/12/30 02:43:11;;;;;;;8.43;1.83;;;12.10;99.90;;;;;;4974410;28;20034;-81
2021/12/30 02:45:36;;;;;;;9.37;2.37;;;12.00;99.90;;;;;;4976288;28;20042;-80
2021/12/30 02:48:02;;;;;;;9.93;1.80;;;12.10;99.90;;;;;;4975330;28;20050;-78
2021/12/30 02:50:29;;;;;;;13.03;2.27;;;12.10;99.90;;;;;;4992814;28;21214;-78
2021/12/30 02:52:55;;;;;;;5.83;2.77;;;12.10;99.90;;;;;;4975665;28;20139;-78
2021/12/30 02:55:21;;;;;;;9.30;1.43;;;12.10;99.90;;;;;;4991516;28;20026;-79
2021/12/30 02:57:46;;;;;;;12.07;1.90;;;12.10;99.90;;;;;;4974462;28;20054;-78
2021/12/30 03:00:13;;;;;;;6.73;1.80;;;12.10;99.90;;;;;;4992913;28;20046;-78
2021/12/30 03:02:42;;;;;;;9.13;2.03;;;12.10;99.90;;;;;;4974249;28;20041;-79
2021/12/30 03:05:08;;;;;;;6.80;1.60;;;12.20;99.90;;;;;;4973869;28;20038;-78
2021/12/30 03:07:35;;;;;;;14.03;2.53;;;12.20;99.90;;;;;;4990889;28;20050;-78
2021/12/30 03:10:04;;;;;;;10.80;1.77;;;12.20;99.90;;;;;;4976250;28;20077;-80
2021/12/30 03:12:30;;;;;;;12.67;2.50;;;12.20;99.90;;;;;;4976018;28;20026;-79
2021/12/30 03:14:58;;;;;;;9.77;3.13;;;12.30;99.90;;;;;;4975018;28;20027;-80
2021/12/30 03:17:26;;;;;;;5.40;1.83;;;12.20;99.90;;;;;;4984427;28;20049;-81
2021/12/30 03:19:56;;;;;;;13.33;2.67;;;12.20;99.90;;;;;;4974662;28;20107;-81
2021/12/30 03:22:23;;;;;;;8.40;2.40;;;12.20;99.90;;;;;;4975849;28;20062;-80
2021/12/30 03:24:49;;;;;;;10.67;2.17;;;12.20;99.90;;;;;;4974580;28;20033;-81
2021/12/30 03:27:14;;;;;;;6.90;2.73;;;12.20;99.90;;;;;;4985794;28;20027;-81
2021/12/30 03:29:40;;;;;;;9.40;2.23;;;12.20;99.90;;;;;;4975370;28;20031;-80
2021/12/30 03:32:06;;;;;;;6.17;2.33;;;12.20;99.90;;;;;;4986895;28;20031;-81
2021/12/30 03:34:32;;;;;;;9.87;2.33;;;12.20;99.90;;;;;;4975385;28;20216;-80
2021/12/30 03:36:57;;;;;;;4.67;2.00;;;12.20;99.90;;;;;;4991914;28;20035;-81
2021/12/30 03:39:23;;;;;;;10.77;2.97;;;12.20;99.90;;;;;;4975343;28;20023;-81
2021/12/30 03:41:49;;;;;;;9.70;2.10;;;12.20;99.90;;;;;;4974213;28;20123;-81
2021/12/30 03:44:14;;;;;;;10.30;2.07;;;12.20;99.90;;;;;;4977236;28;20039;-81
2021/12/30 03:46:43;;;;;;;10.53;2.67;;;12.30;99.90;;;;;;4987674;28;20054;-81
2021/12/30 03:49:09;;;;;;;5.00;2.23;;;12.30;99.90;;;;;;4973464;28;20023;-81
2021/12/30 03:51:39;;;;;;;3.83;1.70;;;12.20;99.90;;;;;;4974749;28;20053;-81
2021/12/30 03:54:06;;;;;;;7.40;2.27;;;12.20;99.90;;;;;;4988858;28;20022;-80
2021/12/30 03:56:35;;;;;;;7.07;1.80;;;12.20;99.90;;;;;;4975488;28;20039;-80
2021/12/30 03:59:03;;;;;;;4.43;1.87;;;12.30;99.90;;;;;;4976524;28;20022;-80
2021/12/30 04:01:29;;;;;;;5.03;1.53;;;12.20;99.90;;;;;;4974425;28;20023;-80
2021/12/30 04:03:55;;;;;;;4.73;2.27;;;12.20;99.90;;;;;;4975907;28;20034;-81
2021/12/30 04:06:21;;;;;;;2.70;1.80;;;12.20;99.90;;;;;;4976576;28;20149;-81
2021/12/30 04:08:53;;;;;;;4.70;1.23;;;12.20;99.90;;;;;;4975547;28;20026;-80
2021/12/30 04:11:19;;;;;;;2.88;1.10;;;12.20;99.90;;;;;;4986207;28;20241;-80
2021/12/30 04:13:48;;;;;;;6.27;1.53;;;12.20;99.90;;;;;;4974115;28;20038;-80
2021/12/30 04:16:14;;;;;;;3.47;1.73;;;12.20;99.90;;;;;;4967507;28;20060;-80
2021/12/30 04:18:39;;;;;;;1.37;0.83;;;12.30;99.90;;;;;;4986839;28;20478;-78
2021/12/30 04:21:05;;;;;;;4.60;1.00;;;12.20;99.90;;;;;;4978223;28;20031;-79
2021/12/30 04:23:31;;;;;;;3.20;1.70;;;12.20;99.90;;;;;;4977798;28;20421;-80
2021/12/30 04:25:57;;;;;;;4.30;1.33;;;12.20;99.90;;;;;;4977186;28;20034;-80
2021/12/30 04:28:22;;;;;;;3.80;1.07;;;12.20;99.90;;;;;;4995866;28;20109;-80
2021/12/30 04:30:48;;;;;;;4.60;1.13;;;12.20;99.90;;;;;;4978062;28;20109;-80
2021/12/30 04:33:14;;;;;;;2.20;0.87;;;12.20;99.90;;;;;;4976459;28;20038;-80
2021/12/30 04:35:42;;;;;;;6.70;0.77;;;12.20;99.90;;;;;;4987921;28;20054;-81
2021/12/30 04:38:11;;;;;;;1.53;0.87;;;12.20;99.90;;;;;;4977866;28;20043;-80
2021/12/30 04:40:37;;;;;;;1.97;0.73;;;12.20;99.90;;;;;;4992666;28;20026;-79
2021/12/30 04:43:02;;;;;;;1.07;0.83;;;12.20;99.90;;;;;;4978400;28;20073;-78
2021/12/30 04:45:29;;;;;;;1.00;0.53;;;12.20;99.90;;;;;;4987181;28;20026;-80
2021/12/30 04:47:57;;;;;;;2.03;0.47;;;12.20;99.90;;;;;;4977713;28;20119;-80
2021/12/30 04:50:23;;;;;;;4.07;0.60;;;12.30;99.90;;;;;;4978814;28;20042;-80
2021/12/30 04:52:49;;;;;;;0.50;0.47;;;12.30;99.90;;;;;;4985765;28;20033;-76
2021/12/30 04:55:17;;;;;;;1.30;0.67;;;12.30;99.90;;;;;;4993113;28;20019;-78
2021/12/30 04:57:43;;;;;;;0.53;0.40;;;12.30;99.90;;;;;;4988998;28;20050;-78
2021/12/30 05:00:13;;;;;;;0.77;0.50;;;12.30;99.90;;;;;;4978425;28;20026;-80
2021/12/30 05:05:26;;;;;;;2.10;0.60;;;12.40;99.90;;;;;;4994270;28;20033;-78
2021/12/30 05:07:52;;;;;;;0.63;0.50;;;12.40;99.90;;;;;;4978010;28;20214;-78
2021/12/30 05:10:18;;;;;;;0.53;0.50;;;12.40;99.90;;;;;;4994367;28;20041;-78
2021/12/30 05:12:49;;;;;;;1.23;0.80;;;12.40;99.90;;;;;;4976652;28;20019;-78
2021/12/30 05:15:15;;;;;;;1.50;1.13;;;12.50;99.90;;;;;;4977458;28;20037;-78
2021/12/30 05:17:42;;;;;;;3.43;0.83;;;12.50;99.90;;;;;;4973869;28;20018;-78
2021/12/30 05:20:12;;;;;;;2.43;0.73;;;12.60;99.90;;;;;;4977907;28;20033;-78
2021/12/30 05:22:42;;;;;;;5.73;1.17;;;12.50;99.90;;;;;;4987176;28;20042;-79
2021/12/30 05:25:12;;;;;;;1.40;1.20;;;12.70;99.90;;;;;;4978491;28;20033;-78
2021/12/30 05:27:39;;;;;;;3.80;1.00;;;12.70;99.90;;;;;;4975181;28;20027;-81
2021/12/30 05:30:08;;;;;;;1.00;0.90;;;12.70;99.90;;;;;;4993193;28;20034;-79
2021/12/30 05:32:37;;;;;;;1.30;1.00;;;12.70;99.90;;;;;;4976740;28;20038;-82
2021/12/30 05:35:05;;;;;;;1.10;0.80;;;12.80;99.90;;;;;;4976375;28;20035;-78
2021/12/30 05:37:36;;;;;;;1.07;0.97;;;12.80;99.90;;;;;;4978047;28;20015;-78
2021/12/30 05:40:03;;;;;;;1.53;0.97;;;12.90;99.90;;;;;;4977228;28;20034;-79
2021/12/30 05:42:29;;;;;;;1.10;1.00;;;12.90;99.90;;;;;;4977445;28;20046;-79
2021/12/30 05:44:55;;;;;;;1.03;0.80;;;13.00;99.90;;;;;;4976768;28;20030;-79
2021/12/30 05:47:22;;;;;;;1.10;0.70;;;12.90;99.90;;;;;;4977962;28;20049;-79
2021/12/30 05:49:58;;;;;;;1.00;0.70;;;13.00;99.90;;;;;;4987536;28;20041;-79
2021/12/30 05:52:24;;;;;;;1.00;0.70;;;13.10;99.90;;;;;;4976850;28;20098;-79
2021/12/30 05:54:49;;;;;;;0.80;0.80;;;13.20;99.90;;;;;;4976870;28;20025;-79
2021/12/30 05:57:15;;;;;;;0.97;0.70;;;13.20;99.90;;;;;;4976931;28;20050;-79
2021/12/30 05:59:46;;;;;;;0.83;0.60;;;13.20;99.90;;;;;;4992431;28;20023;-79
2021/12/30 06:02:12;;;;;;;0.70;0.60;;;13.20;99.90;;;;;;4975873;28;21171;-79
2021/12/30 06:04:38;;;;;;;0.60;0.50;;;13.20;99.90;;;;;;4975849;28;20054;-78
2021/12/30 06:07:13;;;;;;;0.33;0.33;;;13.20;99.90;;;;;;4973715;28;20042;-79
2021/12/30 06:09:39;;;;;;;0.60;0.50;;;13.30;99.90;;;;;;4975883;28;20030;-78
2021/12/30 06:12:05;;;;;;;0.40;0.40;;;13.30;99.90;;;;;;4976238;28;20058;-78
2021/12/30 06:14:33;;;;;;;1.30;0.77;;;13.30;99.90;;;;;;4993707;28;20023;-78
2021/12/30 06:17:02;;;;;;;0.57;0.40;;;13.30;99.90;;;;;;4992488;28;20034;-78
2021/12/30 06:19:30;;;;;;;0.70;0.60;;;13.30;99.90;;;;;;4977040;28;20042;-78
2021/12/30 06:21:56;;;;;;;0.53;0.50;;;13.30;99.90;;;;;;4975608;28;20385;-78
2021/12/30 06:24:24;;;;;;;2.63;0.70;;;13.40;99.90;;;;;;4976438;28;20049;-78
2021/12/30 06:26:52;;;;;;;0.80;0.50;;;13.50;99.90;;;;;;4988079;28;20035;-78
2021/12/30 06:29:18;;;;;;;1.60;0.50;;;13.50;99.90;;;;;;4987886;28;20038;-79
2021/12/30 06:31:45;;;;;;;1.00;0.70;;;13.40;99.90;;;;;;4992212;28;20046;-79
2021/12/30 06:34:14;;;;;;;1.90;0.60;;;13.50;99.90;;;;;;4976102;28;20082;-79
2021/12/30 06:36:40;;;;;;;2.37;0.50;;;13.60;99.90;;;;;;4975895;28;20107;-78
2021/12/30 06:39:08;;;;;;;1.57;0.63;;;13.60;99.90;;;;;;4969370;28;20018;-79
2021/12/30 06:41:34;;;;;;;0.60;0.50;;;13.60;99.90;;;;;;4976268;28;20026;-79
2021/12/30 06:44:03;;;;;;;1.20;0.60;;;13.50;99.90;;;;;;4975707;28;20031;-79
2021/12/30 06:46:29;;;;;;;1.03;0.50;;;13.50;99.90;;;;;;4975753;28;20057;-79
2021/12/30 06:48:55;;;;;;;0.97;0.50;;;13.50;99.90;;;;;;4987599;28;20023;-78
2021/12/30 06:51:23;;;;;;;1.17;0.80;;;13.50;99.90;;;;;;4992222;28;20078;-79
2021/12/30 06:53:54;;;;;;;1.00;0.70;;;13.60;99.90;;;;;;4977112;28;20172;-79
2021/12/30 06:56:23;;;;;;;0.97;0.50;;;13.60;99.90;;;;;;4977169;28;20030;-79
2021/12/30 06:58:49;;;;;;;0.63;0.40;;;13.60;99.90;;;;;;4985965;28;20019;-79
2021/12/30 07:01:15;;;;;;;0.50;0.50;;;13.60;99.90;;;;;;4975412;28;20054;-79
2021/12/30 07:03:43;;;;;;;0.60;0.60;;;13.60;99.90;;;;;;4976664;28;20010;-78
2021/12/30 07:06:09;;;;;;;0.60;0.40;;;13.60;99.90;;;;;;4976005;28;20129;-79
2021/12/30 07:08:35;;;;;;;3.00;0.33;;;13.70;99.90;;;;;;4975186;28;20026;-79
2021/12/30 07:11:01;;;;;;;0.53;0.50;;;13.60;99.90;;;;;;4976826;28;20026;-79
2021/12/30 07:13:26;;;;;;;0.50;0.50;;;13.70;99.90;;;;;;4976378;28;20054;-79
2021/12/30 07:15:57;;;;;;;1.53;0.40;;;13.70;99.90;;;;;;4978068;28;20019;-78
2021/12/30 07:18:22;;;;;;;0.40;0.40;;;13.70;99.90;;;;;;4987748;28;20039;-79
2021/12/30 07:20:48;;;;;;;1.03;0.40;;;13.70;99.90;;;;;;4975012;28;20127;-78
2021/12/30 07:23:16;;;;;;;0.63;0.40;;;13.80;99.90;;;;;;4974758;28;20030;-78
2021/12/30 07:25:44;;;;;;;0.30;0.30;;;13.60;99.90;;;;;;4974801;28;20433;-79
2021/12/30 07:28:13;;;;;;;1.37;0.50;;;13.60;99.90;;;;;;4987495;28;20079;-78
2021/12/30 07:30:38;;;;;;;0.90;0.50;;;13.60;99.90;;;;;;4976189;28;20074;-79
2021/12/30 07:33:06;;;;;;;0.40;0.40;;;13.60;99.90;;;;;;4974837;28;20043;-79
2021/12/30 07:35:34;;;;;;;0.60;0.60;;;13.60;99.90;;;;;;4976165;28;20026;-78
2021/12/30 07:38:04;;;;;;;1.90;0.97;;;13.60;99.90;;;;;;4987893;28;20026;-78
2021/12/30 07:40:30;;;;;;;1.30;0.70;;;13.60;99.90;;;;;;4976444;28;20038;-79
2021/12/30 07:42:56;;;;;;;0.70;0.70;;;13.70;99.90;;;;;;4991730;28;20031;-79
2021/12/30 07:45:31;;;;;;;1.73;0.60;;;13.60;99.90;;;;;;4975370;28;20054;-79
2021/12/30 07:47:57;;;;;;;0.50;0.50;;;13.80;99.90;;;;;;4975124;28;20023;-79
2021/12/30 07:50:23;;;;;;;2.13;1.00;;;13.70;99.90;;;;;;4975844;28;20058;-79
2021/12/30 07:52:53;;;;;;;1.27;0.77;;;13.80;99.90;;;;;;4996400;28;20034;-79
2021/12/30 07:55:19;;;;;;;1.57;0.70;;;13.70;99.90;;;;;;4996013;28;20116;-79
2021/12/30 07:57:48;;;;;;;1.17;0.80;;;13.70;99.90;;;;;;4979254;28;20095;-79
2021/12/30 08:00:17;;;;;;;1.27;0.70;;;13.70;99.90;;;;;;4979509;28;20034;-78
2021/12/30 08:02:44;;;;;;;0.70;0.70;;;13.70;99.90;;;;;;4973789;28;20054;-79
2021/12/30 08:05:12;;;;;;;3.07;0.97;;;13.70;99.90;;;;;;4978862;28;20019;-79
2021/12/30 08:07:42;;;;;;;0.67;0.67;;;13.70;99.90;;;;;;4996298;28;20050;-78
2021/12/30 08:10:13;;;;;;;3.43;1.00;;;13.70;99.90;;;;;;4977394;28;20039;-79
2021/12/30 08:12:41;;;;;;;1.15;0.80;;;13.70;99.90;;;;;;4978924;28;20041;-79
2021/12/30 08:15:07;;;;;;;1.88;0.93;;;13.70;99.90;;;;;;4978196;28;20019;-79
2021/12/30 08:17:36;;;;;;;1.00;0.90;;;13.70;99.90;;;;;;4979708;28;20046;-79
2021/12/30 08:20:09;;;;;;;0.83;0.77;;;13.70;99.90;;;;;;4978401;28;20118;-78
2021/12/30 08:22:37;;;;;;;2.15;1.92;;;13.70;99.90;;;;;;4994659;28;20023;-80
2021/12/30 08:25:07;;;;;;;1.57;0.83;;;13.80;99.90;;;;;;4976604;28;20039;-79
2021/12/30 08:27:33;;;;;;;2.00;0.60;;;13.80;99.90;;;;;;4977880;28;20049;-79
2021/12/30 08:30:02;;;;;;;1.27;0.50;;;13.80;99.90;;;;;;4979150;28;20034;-78
2021/12/30 08:32:28;;;;;;;0.60;0.40;;;13.80;99.90;;;;;;4995442;28;20018;-79
2021/12/30 08:34:53;;;;;;;0.60;0.60;;;14.00;99.90;;;;;;4978851;28;20025;-79
2021/12/30 08:37:19;;;;;;;0.40;0.40;;;14.00;99.90;;;;;;4978061;28;20023;-79
2021/12/30 08:39:48;;;;;;;0.73;0.60;;;13.90;99.90;;;;;;4978025;28;20030;-79
2021/12/30 08:42:30;;;;;;;0.57;0.30;;;13.90;99.90;;;;;;4976254;28;20039;-79
2021/12/30 08:44:58;;;;;;;0.50;0.40;;;13.90;99.90;;;;;;4978942;28;20026;-78
2021/12/30 08:47:25;;;;;;;0.40;0.40;;;14.00;99.90;;;;;;4995571;28;21089;-78
2021/12/30 08:49:53;;;;;;;0.60;0.60;;;13.90;99.90;;;;;;4979616;28;20034;-78
2021/12/30 08:52:24;;;;;;;0.83;0.60;;;13.90;99.90;;;;;;4978345;28;20027;-78
2021/12/30 08:54:50;;;;;;;0.63;0.50;;;14.00;99.90;;;;;;4978190;28;20027;-78
2021/12/30 08:57:18;;;;;;;1.10;0.60;;;13.90;99.90;;;;;;4975298;28;20054;-79
2021/12/30 08:59:46;;;;;;;0.63;0.57;;;14.00;99.90;;;;;;4993204;28;20024;-79
2021/12/30 09:02:13;;;;;;;0.53;0.43;;;14.00;99.90;;;;;;4977707;28;20022;-78
2021/12/30 09:04:42;;;;;;;0.80;0.80;;;14.00;99.90;;;;;;4976839;28;20047;-79
2021/12/30 09:07:08;;;;;;;0.63;0.60;;;14.00;99.90;;;;;;4992868;28;20025;-79
2021/12/30 09:09:34;;;;;;;5.38;0.75;;;14.00;99.90;;;;;;4977858;28;20376;-78
2021/12/30 09:12:05;;;;;;;1.13;0.87;;;14.00;99.90;;;;;;4976781;28;20058;-78
2021/12/30 09:14:33;;;;;;;0.43;0.40;;;14.00;99.90;;;;;;4990541;28;20047;-79
2021/12/30 09:17:01;;;;;;;0.80;0.80;;;14.10;99.90;;;;;;4994334;28;20030;-79
2021/12/30 09:19:27;;;;;;;0.50;0.50;;;14.10;99.90;;;;;;4975998;28;20023;-79
2021/12/30 09:21:53;;;;;;;0.60;0.60;;;14.10;99.90;;;;;;4975674;28;20066;-79
2021/12/30 09:24:21;;;;;;;0.63;0.60;;;14.10;99.90;;;;;;4976643;28;20042;-79
2021/12/30 09:26:47;;;;;;;1.63;0.80;;;14.10;99.90;;;;;;4977275;28;20026;-79
2021/12/30 09:29:13;;;;;;;1.55;0.60;;;14.10;99.90;;;;;;4976935;28;20094;-79
2021/12/30 09:31:49;;;;;;;1.10;0.50;;;14.10;99.90;;;;;;4976917;28;20245;-79
2021/12/30 09:34:16;;;;;;;0.50;0.50;;;14.10;99.90;;;;;;4978319;28;20038;-79
2021/12/30 09:36:45;;;;;;;1.38;0.60;;;14.10;99.90;;;;;;4989576;28;21249;-79
2021/12/30 09:39:12;;;;;;;0.90;0.40;;;14.10;99.90;;;;;;4982228;28;20013;-79
2021/12/30 09:41:44;;;;;;;0.87;0.70;;;14.20;99.90;;;;;;4977473;28;20035;-79
2021/12/30 09:44:14;;;;;;;0.60;0.57;;;14.20;99.90;;;;;;4979214;28;20047;-79
2021/12/30 09:46:43;;;;;;;1.17;0.70;;;14.20;99.90;;;;;;4980007;28;20045;-79
2021/12/30 09:49:13;;;;;;;1.03;0.83;;;14.20;99.90;;;;;;4977176;28;20027;-79
2021/12/30 09:51:41;;;;;;;0.80;0.73;;;14.30;99.90;;;;;;4975355;28;21235;-79
2021/12/30 09:54:10;;;;;;;3.35;0.60;;;14.30;99.90;;;;;;4977897;28;20051;-80
2021/12/30 09:56:47;;;;;;;0.75;0.60;;;14.30;99.90;;;;;;4989708;28;20034;-80
2021/12/30 09:59:16;;;;;;;1.42;0.60;;;14.40;99.90;;;;;;4978565;28;20024;-81
2021/12/30 10:01:44;;;;;;;0.30;0.30;;;14.40;99.90;;;;;;4978258;28;20018;-80
2021/12/30 10:04:12;;;;;;;5.05;0.50;;;14.40;99.90;;;;;;4994302;28;20049;-80
2021/12/30 10:06:47;;;;;;;0.40;0.30;;;14.50;99.90;;;;;;4978815;28;20038;-80
2021/12/30 10:09:15;;;;;;;3.58;0.30;;;14.50;99.90;;;;;;4979689;28;20042;-79
2021/12/30 10:11:49;;;;;;;0.30;0.30;;;14.60;99.90;;;;;;4979246;28;20045;-80
2021/12/30 10:14:33;;;;;;;0.30;0.20;;;14.60;99.90;;;;;;4977978;28;20030;-80
2021/12/30 10:17:17;;;;;;;0.43;0.30;;;14.60;99.90;;;;;;4990711;28;20023;-79
2021/12/30 10:19:44;;;;;;;0.52;0.25;;;14.60;99.90;;;;;;4978073;28;20070;-80
2021/12/30 10:22:12;;;;;;;0.22;0.20;;;14.60;99.90;;;;;;4977821;28;20018;-79
2021/12/30 10:24:38;;;;;;;0.20;0.20;;;14.60;99.90;;;;;;4989813;28;20062;-80
2021/12/30 10:27:04;;;;;;;0.43;0.30;;;14.60;99.90;;;;;;4976108;28;21189;-80
2021/12/30 10:29:47;;;;;;;0.38;0.30;;;14.60;99.90;;;;;;4975175;28;20034;-80
2021/12/30 10:32:18;;;;;;;0.73;0.30;;;14.60;99.90;;;;;;4977882;28;21126;-80
2021/12/30 10:35:13;;;;;;;0.30;0.20;;;14.60;99.90;;;;;;4976926;28;20053;-80
2021/12/30 10:37:45;;;;;;;0.75;0.20;;;14.60;99.90;;;;;;4978173;28;20026;-79
2021/12/30 10:40:29;;;;;;;0.52;0.30;;;14.70;99.90;;;;;;4988445;28;20080;-80
2021/12/30 10:43:30;;;;;;;0.20;0.20;;;14.70;99.90;;;;;;4977538;28;20049;-79
2021/12/30 10:46:16;;;;;;;0.38;0.28;;;14.70;99.90;;;;;;4976988;28;20038;-80
2021/12/30 10:48:59;;;;;;;0.30;0.30;;;14.70;99.90;;;;;;4978123;28;20051;-80
2021/12/30 10:51:31;;;;;;;0.32;0.30;;;14.80;99.90;;;;;;4996795;28;20027;-80
2021/12/30 10:54:17;;;;;;;0.50;0.30;;;14.70;99.90;;;;;;4980751;28;20030;-80
2021/12/30 10:57:04;;;;;;;0.52;0.40;;;14.80;99.90;;;;;;4978386;28;20031;-79
2021/12/30 10:59:33;;;;;;;0.98;0.47;;;14.80;99.90;;;;;;4978805;28;20042;-80
2021/12/30 11:02:12;;;;;;;1.95;0.50;;;14.80;99.90;;;;;;4993178;28;20019;-80
2021/12/30 11:05:00;;;;;;;2.25;0.80;;;14.70;99.90;;;;;;4974008;28;20043;-80
2021/12/30 11:07:48;;;;;;;0.98;0.40;;;14.80;99.90;;;;;;4987425;28;20027;-80
2021/12/30 11:10:38;;;;;;;0.60;0.60;;;14.80;99.90;;;;;;4988832;28;20146;-80
2021/12/30 11:13:17;;;;;;;2.28;0.47;;;14.90;99.90;;;;;;4977665;28;20046;-80
2021/12/30 11:15:53;;;;;;;0.50;0.40;;;14.90;99.90;;;;;;4985563;28;20039;-80
2021/12/30 11:18:38;;;;;;;1.05;0.50;;;14.90;99.90;;;;;;4976424;28;20103;-80
2021/12/30 11:21:06;;;;;;;4.00;0.40;;;15.00;99.90;;;;;;4992719;28;20043;-82
2021/12/30 11:23:34;;;;;;;1.85;0.60;;;14.90;99.90;;;;;;4976333;28;20031;-80
2021/12/30 11:26:23;;;;;;;0.77;0.55;;;14.90;99.90;;;;;;4985827;28;20083;-81
2021/12/30 11:29:03;;;;;;;;;;;;;;;;;;;;;
2021/12/30 11:31:41;;;;;;;3.38;0.40;;;14.90;99.90;;;;;;4996993;28;20066;-81
2021/12/30 11:34:29;;;;;;;;;;;;;;;;;;;;;
2021/12/30 11:36:57;;;;;;;2.97;0.80;;;14.90;99.90;;;;;;4997792;28;20046;-81
2021/12/30 11:39:24;;;;;;;0.82;0.60;;;14.90;99.90;;;;;;4979462;28;20039;-81
2021/12/30 11:42:05;;;;;;;1.80;1.00;;;15.00;99.90;;;;;;4994956;28;20029;-81
2021/12/30 11:44:47;;;;;;;2.08;0.88;;;15.00;99.90;;;;;;4996202;28;20010;-81
2021/12/30 11:47:34;;;;;;;1.13;0.57;;;15.00;99.90;;;;;;4979252;28;20019;-81
2021/12/30 11:50:06;;;;;;;2.63;0.90;;;15.10;99.90;;;;;;4990682;28;20031;-82
2021/12/30 11:52:49;;;;;;;1.67;0.88;;;15.10;99.90;;;;;;4991886;28;20019;-82
2021/12/30 11:55:42;;;;;;;3.17;0.90;;;15.20;99.90;;;;;;4995862;28;20058;-81
2021/12/30 11:58:27;;;;;;;1.83;0.75;;;15.30;99.90;;;;;;4989410;28;20053;-82
2021/12/30 12:01:11;;;;;;;1.42;0.60;;;15.30;99.90;;;;;;4978026;28;20065;-81
2021/12/30 12:03:47;;;;;;;0.80;0.45;;;15.30;99.90;;;;;;4992007;28;20043;-81
2021/12/30 12:06:27;;;;;;;3.35;0.70;;;15.40;99.90;;;;;;4980669;28;20030;-81
2021/12/30 12:09:17;;;;;;;2.35;0.60;;;15.50;99.90;;;;;;4996029;28;20043;-81
2021/12/30 12:11:46;;;;;;;1.90;0.40;;;15.50;99.90;;;;;;4993727;28;20046;-81
2021/12/30 12:14:24;;;;;;;1.15;0.40;;;15.50;99.90;;;;;;4979566;28;20085;-81
2021/12/30 12:16:53;;;;;;;2.53;0.40;;;15.50;99.90;;;;;;4971829;28;20007;-81
2021/12/30 12:19:42;;;;;;;1.52;0.60;;;15.50;99.90;;;;;;4995563;28;20047;-81
2021/12/30 12:22:29;;;;;;;1.10;0.47;;;15.50;99.90;;;;;;4979574;28;20140;-81
2021/12/30 12:25:07;;;;;;;1.42;0.70;;;15.50;99.90;;;;;;4969150;28;20042;-80
2021/12/30 12:27:49;;;;;;;1.88;0.43;;;15.50;99.90;;;;;;4982292;28;20217;-81
2021/12/30 12:30:31;;;;;;;1.58;0.50;;;15.40;99.90;;;;;;4995388;28;20229;-80
2021/12/30 12:33:20;;;;;;;2.15;1.20;;;15.40;99.90;;;;;;4987701;28;20027;-80
2021/12/30 12:35:46;;;;;;;2.67;0.47;;;15.50;99.90;;;;;;4979409;28;20062;-79
2021/12/30 12:38:14;;;;;;;0.63;0.45;;;15.50;99.90;;;;;;4978232;28;20031;-80
2021/12/30 12:40:54;;;;;;;3.80;0.90;;;15.60;99.90;;;;;;4978686;28;20061;-81
2021/12/30 12:43:31;;;;;;;2.67;0.65;;;15.50;99.90;;;;;;4979837;28;20035;-80
2021/12/30 12:46:05;;;;;;;0.75;0.32;;;15.60;99.90;;;;;;4979408;28;20018;-79
2021/12/30 12:48:40;;;;;;;0.95;0.40;;;15.60;99.90;;;;;;4991018;28;20042;-80
2021/12/30 12:51:21;;;;;;;1.55;0.55;;;15.50;99.90;;;;;;4979837;28;20038;-80
2021/12/30 12:54:01;;;;;;;2.10;0.90;;;15.50;99.90;;;;;;4997242;28;20018;-79
2021/12/30 12:56:37;;;;;;;14.00;0.73;;;15.50;99.90;;;;;;4980664;28;20022;-79
2021/12/30 12:59:14;;;;;;;7.05;0.63;;;15.50;99.90;;;;;;4991906;28;20039;-80
2021/12/30 13:01:45;;;;;;;4.05;0.70;;;15.50;99.90;;;;;;4996113;28;20033;-78
2021/12/30 13:04:19;;;;;;;2.05;0.52;;;15.50;99.90;;;;;;4980738;28;20023;-79
2021/12/30 13:06:45;;;;;;;0.82;0.32;;;15.50;99.90;;;;;;4997994;28;20057;-79